sensor_id;sensor_type;location;lat;lon;timestamp;P1;durP1;ratioP1;P2;durP2;ratioP2
45043;SDS011;30784;48.490;9.688;2023-06-22T00:01:54;12.38;;;6.20;;
45043;SDS011;30784;48.490;9.688;2023-06-22T00:04:20;11.57;;;6.53;;
45043;SDS011;30784;48.490;9.688;2023-06-22T00:06:45;11.05;;;6.38;;
45043;SDS011;30784;48.490;9.688;2023-06-22T00:09:11;14.15;;;7.68;;
45043;SDS011;30784;48.490;9.688;2023-06-22T00:11:37;14.50;;;7.22;;
45043;SDS011;30784;48.490;9.688;2023-06-22T00:14:03;12.82;;;6.82;;
45043;SDS011;30784;48.490;9.688;2023-06-22T00:16:29;11.48;;;6.68;;
45043;SDS011;30784;48.490;9.688;2023-06-22T00:18:56;13.38;;;6.95;;
45043;SDS011;30784;48.490;9.688;2023-06-22T00:21:25;9.98;;;6.00;;
45043;SDS011;30784;48.490;9.688;2023-06-22T00:23:51;10.85;;;6.40;;
45043;SDS011;30784;48.490;9.688;2023-06-22T00:26:16;12.20;;;6.47;;
45043;SDS011;30784;48.490;9.688;2023-06-22T00:28:42;11.65;;;6.25;;
45043;SDS011;30784;48.490;9.688;2023-06-22T00:31:08;12.77;;;6.38;;
45043;SDS011;30784;48.490;9.688;2023-06-22T00:33:33;10.98;;;6.03;;
45043;SDS011;30784;48.490;9.688;2023-06-22T00:35:59;10.75;;;5.85;;
45043;SDS011;30784;48.490;9.688;2023-06-22T00:38:24;13.02;;;5.90;;
45043;SDS011;30784;48.490;9.688;2023-06-22T00:40:50;10.25;;;5.30;;
45043;SDS011;30784;48.490;9.688;2023-06-22T00:43:15;10.77;;;5.85;;
45043;SDS011;30784;48.490;9.688;2023-06-22T00:45:41;11.05;;;5.63;;
45043;SDS011;30784;48.490;9.688;2023-06-22T00:48:06;10.15;;;5.47;;
45043;SDS011;30784;48.490;9.688;2023-06-22T00:50:33;11.20;;;5.90;;
45043;SDS011;30784;48.490;9.688;2023-06-22T00:53:00;11.80;;;5.70;;
45043;SDS011;30784;48.490;9.688;2023-06-22T00:55:37;10.13;;;5.60;;
45043;SDS011;30784;48.490;9.688;2023-06-22T00:58:06;9.98;;;5.55;;
45043;SDS011;30784;48.490;9.688;2023-06-22T01:00:35;11.00;;;5.35;;
45043;SDS011;30784;48.490;9.688;2023-06-22T01:03:01;13.05;;;5.68;;
45043;SDS011;30784;48.490;9.688;2023-06-22T01:05:27;11.82;;;4.97;;
45043;SDS011;30784;48.490;9.688;2023-06-22T01:08:00;9.68;;;5.18;;
45043;SDS011;30784;48.490;9.688;2023-06-22T01:16:21;12.60;;;5.85;;
45043;SDS011;30784;48.490;9.688;2023-06-22T01:18:55;13.27;;;5.93;;
45043;SDS011;30784;48.490;9.688;2023-06-22T01:21:25;11.45;;;6.00;;
45043;SDS011;30784;48.490;9.688;2023-06-22T01:26:43;11.43;;;5.72;;
45043;SDS011;30784;48.490;9.688;2023-06-22T01:29:11;11.35;;;5.25;;
45043;SDS011;30784;48.490;9.688;2023-06-22T01:31:38;11.55;;;6.18;;
45043;SDS011;30784;48.490;9.688;2023-06-22T01:34:06;11.73;;;6.00;;
45043;SDS011;30784;48.490;9.688;2023-06-22T01:36:33;12.02;;;5.68;;
45043;SDS011;30784;48.490;9.688;2023-06-22T01:39:00;10.85;;;5.80;;
45043;SDS011;30784;48.490;9.688;2023-06-22T01:41:28;12.25;;;5.90;;
45043;SDS011;30784;48.490;9.688;2023-06-22T01:43:56;10.00;;;5.90;;
45043;SDS011;30784;48.490;9.688;2023-06-22T01:46:22;11.10;;;5.90;;
45043;SDS011;30784;48.490;9.688;2023-06-22T01:48:48;11.43;;;5.90;;
45043;SDS011;30784;48.490;9.688;2023-06-22T01:51:15;11.35;;;6.40;;
45043;SDS011;30784;48.490;9.688;2023-06-22T01:53:40;12.45;;;6.38;;
45043;SDS011;30784;48.490;9.688;2023-06-22T01:56:07;11.77;;;6.32;;
45043;SDS011;30784;48.490;9.688;2023-06-22T01:58:33;12.27;;;6.10;;
45043;SDS011;30784;48.490;9.688;2023-06-22T02:01:02;11.23;;;5.97;;
45043;SDS011;30784;48.490;9.688;2023-06-22T02:03:34;10.95;;;5.80;;
45043;SDS011;30784;48.490;9.688;2023-06-22T02:06:23;12.65;;;5.78;;
45043;SDS011;30784;48.490;9.688;2023-06-22T02:08:59;11.45;;;5.68;;
45043;SDS011;30784;48.490;9.688;2023-06-22T02:11:27;13.13;;;5.70;;
45043;SDS011;30784;48.490;9.688;2023-06-22T02:13:55;11.27;;;5.65;;
45043;SDS011;30784;48.490;9.688;2023-06-22T02:16:22;11.60;;;5.88;;
45043;SDS011;30784;48.490;9.688;2023-06-22T02:18:51;10.63;;;6.00;;
45043;SDS011;30784;48.490;9.688;2023-06-22T02:21:17;13.65;;;6.18;;
45043;SDS011;30784;48.490;9.688;2023-06-22T02:23:43;11.00;;;6.35;;
45043;SDS011;30784;48.490;9.688;2023-06-22T02:26:09;10.30;;;5.50;;
45043;SDS011;30784;48.490;9.688;2023-06-22T02:28:35;10.63;;;5.78;;
45043;SDS011;30784;48.490;9.688;2023-06-22T02:31:00;10.73;;;5.75;;
45043;SDS011;30784;48.490;9.688;2023-06-22T02:33:26;12.05;;;6.03;;
45043;SDS011;30784;48.490;9.688;2023-06-22T02:35:52;11.82;;;5.75;;
45043;SDS011;30784;48.490;9.688;2023-06-22T02:38:18;12.15;;;6.00;;
45043;SDS011;30784;48.490;9.688;2023-06-22T02:40:44;13.05;;;5.63;;
45043;SDS011;30784;48.490;9.688;2023-06-22T02:43:09;13.27;;;6.43;;
45043;SDS011;30784;48.490;9.688;2023-06-22T02:45:35;11.65;;;5.97;;
45043;SDS011;30784;48.490;9.688;2023-06-22T02:48:01;12.20;;;5.47;;
45043;SDS011;30784;48.490;9.688;2023-06-22T02:50:26;11.70;;;6.03;;
45043;SDS011;30784;48.490;9.688;2023-06-22T02:52:52;11.23;;;5.53;;
45043;SDS011;30784;48.490;9.688;2023-06-22T02:55:17;10.00;;;5.28;;
45043;SDS011;30784;48.490;9.688;2023-06-22T02:57:43;11.13;;;5.60;;
45043;SDS011;30784;48.490;9.688;2023-06-22T03:00:10;11.95;;;5.70;;
45043;SDS011;30784;48.490;9.688;2023-06-22T03:02:43;11.27;;;5.68;;
45043;SDS011;30784;48.490;9.688;2023-06-22T03:05:09;12.63;;;6.07;;
45043;SDS011;30784;48.490;9.688;2023-06-22T03:07:41;11.53;;;6.10;;
45043;SDS011;30784;48.490;9.688;2023-06-22T03:10:09;12.77;;;6.03;;
45043;SDS011;30784;48.490;9.688;2023-06-22T03:12:35;10.38;;;5.60;;
45043;SDS011;30784;48.490;9.688;2023-06-22T03:15:02;12.48;;;6.18;;
45043;SDS011;30784;48.490;9.688;2023-06-22T03:17:29;11.93;;;5.65;;
45043;SDS011;30784;48.490;9.688;2023-06-22T03:19:54;11.90;;;5.80;;
45043;SDS011;30784;48.490;9.688;2023-06-22T03:22:20;11.57;;;6.03;;
45043;SDS011;30784;48.490;9.688;2023-06-22T03:24:45;11.63;;;5.72;;
45043;SDS011;30784;48.490;9.688;2023-06-22T03:27:11;11.20;;;6.32;;
45043;SDS011;30784;48.490;9.688;2023-06-22T03:29:36;11.95;;;5.78;;
45043;SDS011;30784;48.490;9.688;2023-06-22T03:32:02;11.10;;;6.07;;
45043;SDS011;30784;48.490;9.688;2023-06-22T03:34:29;10.05;;;5.53;;
45043;SDS011;30784;48.490;9.688;2023-06-22T03:36:58;11.23;;;5.90;;
45043;SDS011;30784;48.490;9.688;2023-06-22T03:39:24;12.45;;;5.93;;
45043;SDS011;30784;48.490;9.688;2023-06-22T03:41:49;13.10;;;5.97;;
45043;SDS011;30784;48.490;9.688;2023-06-22T03:44:15;11.48;;;6.03;;
45043;SDS011;30784;48.490;9.688;2023-06-22T03:46:40;11.73;;;5.95;;
45043;SDS011;30784;48.490;9.688;2023-06-22T03:49:06;12.52;;;5.85;;
45043;SDS011;30784;48.490;9.688;2023-06-22T03:51:32;11.43;;;5.80;;
45043;SDS011;30784;48.490;9.688;2023-06-22T03:53:58;13.40;;;5.82;;
45043;SDS011;30784;48.490;9.688;2023-06-22T03:56:23;10.40;;;6.03;;
45043;SDS011;30784;48.490;9.688;2023-06-22T03:58:49;12.75;;;6.20;;
45043;SDS011;30784;48.490;9.688;2023-06-22T04:01:14;14.43;;;7.07;;
45043;SDS011;30784;48.490;9.688;2023-06-22T04:03:42;11.52;;;6.05;;
45043;SDS011;30784;48.490;9.688;2023-06-22T04:06:07;12.00;;;5.88;;
45043;SDS011;30784;48.490;9.688;2023-06-22T04:08:33;9.88;;;5.38;;
45043;SDS011;30784;48.490;9.688;2023-06-22T04:10:59;12.38;;;6.00;;
45043;SDS011;30784;48.490;9.688;2023-06-22T04:13:24;11.40;;;5.65;;
45043;SDS011;30784;48.490;9.688;2023-06-22T04:15:50;11.82;;;5.45;;
45043;SDS011;30784;48.490;9.688;2023-06-22T04:18:15;9.68;;;5.20;;
45043;SDS011;30784;48.490;9.688;2023-06-22T04:20:41;11.88;;;5.88;;
45043;SDS011;30784;48.490;9.688;2023-06-22T04:23:06;11.50;;;5.28;;
45043;SDS011;30784;48.490;9.688;2023-06-22T04:25:32;9.85;;;5.20;;
45043;SDS011;30784;48.490;9.688;2023-06-22T04:27:58;10.50;;;5.63;;
45043;SDS011;30784;48.490;9.688;2023-06-22T04:30:24;10.18;;;5.43;;
45043;SDS011;30784;48.490;9.688;2023-06-22T04:32:49;11.02;;;5.47;;
45043;SDS011;30784;48.490;9.688;2023-06-22T04:35:22;10.63;;;5.50;;
45043;SDS011;30784;48.490;9.688;2023-06-22T04:37:50;11.18;;;5.53;;
45043;SDS011;30784;48.490;9.688;2023-06-22T04:40:19;13.20;;;5.30;;
45043;SDS011;30784;48.490;9.688;2023-06-22T04:42:48;11.32;;;5.50;;
45043;SDS011;30784;48.490;9.688;2023-06-22T04:45:20;11.02;;;5.25;;
45043;SDS011;30784;48.490;9.688;2023-06-22T04:47:46;11.75;;;5.10;;
45043;SDS011;30784;48.490;9.688;2023-06-22T04:50:12;10.43;;;5.10;;
45043;SDS011;30784;48.490;9.688;2023-06-22T04:52:38;11.90;;;5.60;;
45043;SDS011;30784;48.490;9.688;2023-06-22T04:55:03;10.80;;;4.78;;
45043;SDS011;30784;48.490;9.688;2023-06-22T04:57:30;8.73;;;4.50;;
45043;SDS011;30784;48.490;9.688;2023-06-22T04:59:59;9.90;;;4.55;;
45043;SDS011;30784;48.490;9.688;2023-06-22T05:02:36;9.90;;;4.63;;
45043;SDS011;30784;48.490;9.688;2023-06-22T05:05:02;11.07;;;4.90;;
45043;SDS011;30784;48.490;9.688;2023-06-22T05:07:32;9.13;;;4.83;;
45043;SDS011;30784;48.490;9.688;2023-06-22T05:10:01;9.13;;;4.40;;
45043;SDS011;30784;48.490;9.688;2023-06-22T05:12:28;11.32;;;4.55;;
45043;SDS011;30784;48.490;9.688;2023-06-22T05:14:54;12.07;;;4.32;;
45043;SDS011;30784;48.490;9.688;2023-06-22T05:17:19;7.65;;;3.90;;
45043;SDS011;30784;48.490;9.688;2023-06-22T05:19:45;11.13;;;4.25;;
45043;SDS011;30784;48.490;9.688;2023-06-22T05:22:14;11.13;;;3.92;;
45043;SDS011;30784;48.490;9.688;2023-06-22T05:24:41;10.23;;;3.90;;
45043;SDS011;30784;48.490;9.688;2023-06-22T05:27:07;8.00;;;3.83;;
45043;SDS011;30784;48.490;9.688;2023-06-22T05:29:32;8.15;;;3.40;;
45043;SDS011;30784;48.490;9.688;2023-06-22T05:31:58;8.73;;;3.35;;
45043;SDS011;30784;48.490;9.688;2023-06-22T05:34:23;11.48;;;4.00;;
45043;SDS011;30784;48.490;9.688;2023-06-22T05:36:49;9.77;;;4.20;;
45043;SDS011;30784;48.490;9.688;2023-06-22T05:39:14;9.68;;;3.92;;
45043;SDS011;30784;48.490;9.688;2023-06-22T05:41:40;9.27;;;4.30;;
45043;SDS011;30784;48.490;9.688;2023-06-22T05:44:06;9.25;;;3.88;;
45043;SDS011;30784;48.490;9.688;2023-06-22T05:46:31;9.70;;;3.72;;
45043;SDS011;30784;48.490;9.688;2023-06-22T05:48:57;11.55;;;4.10;;
45043;SDS011;30784;48.490;9.688;2023-06-22T05:51:23;10.13;;;4.10;;
45043;SDS011;30784;48.490;9.688;2023-06-22T05:53:48;12.45;;;4.00;;
45043;SDS011;30784;48.490;9.688;2023-06-22T05:56:17;10.82;;;4.05;;
45043;SDS011;30784;48.490;9.688;2023-06-22T05:58:43;9.85;;;4.00;;
45043;SDS011;30784;48.490;9.688;2023-06-22T06:01:09;9.60;;;4.25;;
45043;SDS011;30784;48.490;9.688;2023-06-22T06:03:34;10.77;;;4.20;;
45043;SDS011;30784;48.490;9.688;2023-06-22T06:06:06;11.57;;;4.30;;
45043;SDS011;30784;48.490;9.688;2023-06-22T06:08:32;11.27;;;4.50;;
45043;SDS011;30784;48.490;9.688;2023-06-22T06:10:58;9.27;;;3.97;;
45043;SDS011;30784;48.490;9.688;2023-06-22T06:13:23;9.32;;;4.30;;
45043;SDS011;30784;48.490;9.688;2023-06-22T06:15:49;9.68;;;4.60;;
45043;SDS011;30784;48.490;9.688;2023-06-22T06:18:16;11.50;;;4.78;;
45043;SDS011;30784;48.490;9.688;2023-06-22T06:20:42;10.80;;;4.85;;
45043;SDS011;30784;48.490;9.688;2023-06-22T06:23:07;11.13;;;4.85;;
45043;SDS011;30784;48.490;9.688;2023-06-22T06:25:33;10.45;;;4.78;;
45043;SDS011;30784;48.490;9.688;2023-06-22T06:27:59;12.13;;;4.78;;
45043;SDS011;30784;48.490;9.688;2023-06-22T06:30:24;12.85;;;5.18;;
45043;SDS011;30784;48.490;9.688;2023-06-22T06:32:50;10.77;;;5.20;;
45043;SDS011;30784;48.490;9.688;2023-06-22T06:35:16;10.95;;;5.35;;
45043;SDS011;30784;48.490;9.688;2023-06-22T06:37:42;11.80;;;5.50;;
45043;SDS011;30784;48.490;9.688;2023-06-22T06:40:10;13.07;;;5.68;;
45043;SDS011;30784;48.490;9.688;2023-06-22T06:42:37;13.88;;;6.22;;
45043;SDS011;30784;48.490;9.688;2023-06-22T06:45:05;10.18;;;5.35;;
45043;SDS011;30784;48.490;9.688;2023-06-22T06:47:31;10.70;;;5.50;;
45043;SDS011;30784;48.490;9.688;2023-06-22T06:49:57;14.10;;;5.75;;
45043;SDS011;30784;48.490;9.688;2023-06-22T06:52:22;13.25;;;5.63;;
45043;SDS011;30784;48.490;9.688;2023-06-22T06:54:48;11.65;;;5.70;;
45043;SDS011;30784;48.490;9.688;2023-06-22T06:57:14;12.35;;;5.55;;
45043;SDS011;30784;48.490;9.688;2023-06-22T06:59:40;13.02;;;5.72;;
45043;SDS011;30784;48.490;9.688;2023-06-22T07:02:06;13.45;;;6.03;;
45043;SDS011;30784;48.490;9.688;2023-06-22T07:04:32;11.43;;;5.80;;
45043;SDS011;30784;48.490;9.688;2023-06-22T07:06:58;10.80;;;5.30;;
45043;SDS011;30784;48.490;9.688;2023-06-22T07:09:26;11.40;;;5.85;;
45043;SDS011;30784;48.490;9.688;2023-06-22T07:11:51;11.18;;;5.95;;
45043;SDS011;30784;48.490;9.688;2023-06-22T07:14:17;13.63;;;6.35;;
45043;SDS011;30784;48.490;9.688;2023-06-22T07:16:42;13.50;;;5.50;;
45043;SDS011;30784;48.490;9.688;2023-06-22T07:19:08;11.60;;;5.88;;
45043;SDS011;30784;48.490;9.688;2023-06-22T07:21:36;12.68;;;6.25;;
45043;SDS011;30784;48.490;9.688;2023-06-22T07:24:01;11.82;;;5.50;;
45043;SDS011;30784;48.490;9.688;2023-06-22T07:26:27;9.98;;;5.22;;
45043;SDS011;30784;48.490;9.688;2023-06-22T07:28:52;14.60;;;5.95;;
45043;SDS011;30784;48.490;9.688;2023-06-22T07:31:18;11.25;;;4.95;;
45043;SDS011;30784;48.490;9.688;2023-06-22T07:33:43;10.13;;;5.35;;
45043;SDS011;30784;48.490;9.688;2023-06-22T07:36:09;12.20;;;5.35;;
45043;SDS011;30784;48.490;9.688;2023-06-22T07:38:34;11.43;;;5.13;;
45043;SDS011;30784;48.490;9.688;2023-06-22T07:41:00;11.35;;;5.28;;
45043;SDS011;30784;48.490;9.688;2023-06-22T07:43:26;11.02;;;4.93;;
45043;SDS011;30784;48.490;9.688;2023-06-22T07:45:51;10.95;;;5.30;;
45043;SDS011;30784;48.490;9.688;2023-06-22T07:48:17;11.45;;;5.32;;
45043;SDS011;30784;48.490;9.688;2023-06-22T07:50:47;13.68;;;5.05;;
45043;SDS011;30784;48.490;9.688;2023-06-22T07:53:12;11.13;;;5.80;;
45043;SDS011;30784;48.490;9.688;2023-06-22T07:55:38;14.85;;;5.43;;
45043;SDS011;30784;48.490;9.688;2023-06-22T07:58:04;12.52;;;5.68;;
45043;SDS011;30784;48.490;9.688;2023-06-22T08:00:29;11.85;;;5.40;;
45043;SDS011;30784;48.490;9.688;2023-06-22T08:02:55;12.27;;;5.53;;
45043;SDS011;30784;48.490;9.688;2023-06-22T08:05:21;13.45;;;5.25;;
45043;SDS011;30784;48.490;9.688;2023-06-22T08:07:46;11.77;;;5.25;;
45043;SDS011;30784;48.490;9.688;2023-06-22T08:10:12;11.60;;;4.95;;
45043;SDS011;30784;48.490;9.688;2023-06-22T08:12:39;11.15;;;5.20;;
45043;SDS011;30784;48.490;9.688;2023-06-22T08:15:05;13.07;;;5.28;;
45043;SDS011;30784;48.490;9.688;2023-06-22T08:17:32;11.98;;;5.90;;
45043;SDS011;30784;48.490;9.688;2023-06-22T08:19:58;12.88;;;5.57;;
45043;SDS011;30784;48.490;9.688;2023-06-22T08:22:23;10.20;;;5.38;;
45043;SDS011;30784;48.490;9.688;2023-06-22T08:24:50;12.90;;;5.03;;
45043;SDS011;30784;48.490;9.688;2023-06-22T08:27:15;16.15;;;6.50;;
45043;SDS011;30784;48.490;9.688;2023-06-22T08:29:43;13.95;;;5.93;;
45043;SDS011;30784;48.490;9.688;2023-06-22T08:32:10;11.38;;;5.80;;
45043;SDS011;30784;48.490;9.688;2023-06-22T08:34:36;12.45;;;5.63;;
45043;SDS011;30784;48.490;9.688;2023-06-22T08:37:02;12.15;;;5.55;;
45043;SDS011;30784;48.490;9.688;2023-06-22T08:39:31;12.60;;;5.70;;
45043;SDS011;30784;48.490;9.688;2023-06-22T08:41:57;11.65;;;5.50;;
45043;SDS011;30784;48.490;9.688;2023-06-22T08:44:22;11.00;;;5.85;;
45043;SDS011;30784;48.490;9.688;2023-06-22T08:46:48;12.05;;;6.10;;
45043;SDS011;30784;48.490;9.688;2023-06-22T08:49:14;13.52;;;6.13;;
45043;SDS011;30784;48.490;9.688;2023-06-22T08:51:40;13.27;;;6.00;;
45043;SDS011;30784;48.490;9.688;2023-06-22T08:54:05;10.68;;;5.22;;
45043;SDS011;30784;48.490;9.688;2023-06-22T08:56:31;13.38;;;5.32;;
45043;SDS011;30784;48.490;9.688;2023-06-22T08:58:56;10.85;;;4.82;;
45043;SDS011;30784;48.490;9.688;2023-06-22T09:01:22;11.60;;;5.60;;
45043;SDS011;30784;48.490;9.688;2023-06-22T09:03:48;11.07;;;4.53;;
45043;SDS011;30784;48.490;9.688;2023-06-22T09:06:20;11.85;;;5.15;;
45043;SDS011;30784;48.490;9.688;2023-06-22T09:08:46;10.23;;;4.40;;
45043;SDS011;30784;48.490;9.688;2023-06-22T09:11:12;10.48;;;4.72;;
45043;SDS011;30784;48.490;9.688;2023-06-22T09:13:38;10.95;;;5.07;;
45043;SDS011;30784;48.490;9.688;2023-06-22T09:16:03;10.57;;;5.30;;
45043;SDS011;30784;48.490;9.688;2023-06-22T09:18:29;10.55;;;5.43;;
45043;SDS011;30784;48.490;9.688;2023-06-22T09:20:55;10.20;;;5.00;;
45043;SDS011;30784;48.490;9.688;2023-06-22T09:23:20;12.18;;;5.05;;
45043;SDS011;30784;48.490;9.688;2023-06-22T09:25:46;10.07;;;4.30;;
45043;SDS011;30784;48.490;9.688;2023-06-22T09:28:12;13.52;;;4.93;;
45043;SDS011;30784;48.490;9.688;2023-06-22T09:30:42;9.52;;;4.78;;
45043;SDS011;30784;48.490;9.688;2023-06-22T09:33:09;9.98;;;4.80;;
45043;SDS011;30784;48.490;9.688;2023-06-22T09:35:35;12.00;;;4.68;;
45043;SDS011;30784;48.490;9.688;2023-06-22T09:38:00;13.77;;;5.25;;
45043;SDS011;30784;48.490;9.688;2023-06-22T09:40:26;10.65;;;4.20;;
45043;SDS011;30784;48.490;9.688;2023-06-22T09:42:52;11.57;;;4.78;;
45043;SDS011;30784;48.490;9.688;2023-06-22T09:45:17;13.20;;;4.93;;
45043;SDS011;30784;48.490;9.688;2023-06-22T09:47:43;10.85;;;4.28;;
45043;SDS011;30784;48.490;9.688;2023-06-22T09:50:09;11.15;;;4.80;;
45043;SDS011;30784;48.490;9.688;2023-06-22T09:52:34;12.52;;;5.55;;
45043;SDS011;30784;48.490;9.688;2023-06-22T09:55:00;10.70;;;4.57;;
45043;SDS011;30784;48.490;9.688;2023-06-22T09:57:26;10.50;;;5.20;;
45043;SDS011;30784;48.490;9.688;2023-06-22T09:59:51;9.77;;;4.57;;
45043;SDS011;30784;48.490;9.688;2023-06-22T10:02:17;12.00;;;4.60;;
45043;SDS011;30784;48.490;9.688;2023-06-22T10:04:42;12.75;;;4.47;;
45043;SDS011;30784;48.490;9.688;2023-06-22T10:07:08;11.15;;;4.50;;
45043;SDS011;30784;48.490;9.688;2023-06-22T10:09:33;10.45;;;4.65;;
45043;SDS011;30784;48.490;9.688;2023-06-22T10:11:59;9.43;;;4.47;;
45043;SDS011;30784;48.490;9.688;2023-06-22T10:14:24;10.93;;;4.53;;
45043;SDS011;30784;48.490;9.688;2023-06-22T10:16:52;11.23;;;4.18;;
45043;SDS011;30784;48.490;9.688;2023-06-22T10:19:17;12.15;;;4.68;;
45043;SDS011;30784;48.490;9.688;2023-06-22T10:21:43;8.90;;;4.30;;
45043;SDS011;30784;48.490;9.688;2023-06-22T10:24:09;12.43;;;4.70;;
45043;SDS011;30784;48.490;9.688;2023-06-22T10:26:34;11.05;;;4.28;;
45043;SDS011;30784;48.490;9.688;2023-06-22T10:29:01;11.18;;;4.07;;
45043;SDS011;30784;48.490;9.688;2023-06-22T10:31:28;12.55;;;4.60;;
45043;SDS011;30784;48.490;9.688;2023-06-22T10:33:54;13.40;;;5.28;;
45043;SDS011;30784;48.490;9.688;2023-06-22T10:36:20;10.20;;;4.15;;
45043;SDS011;30784;48.490;9.688;2023-06-22T10:38:46;10.40;;;4.35;;
45043;SDS011;30784;48.490;9.688;2023-06-22T10:41:12;12.60;;;4.30;;
45043;SDS011;30784;48.490;9.688;2023-06-22T10:43:38;10.93;;;4.15;;
45043;SDS011;30784;48.490;9.688;2023-06-22T10:46:04;9.65;;;4.40;;
45043;SDS011;30784;48.490;9.688;2023-06-22T10:48:31;11.45;;;4.40;;
45043;SDS011;30784;48.490;9.688;2023-06-22T10:50:57;9.93;;;4.15;;
45043;SDS011;30784;48.490;9.688;2023-06-22T10:53:22;10.80;;;4.13;;
45043;SDS011;30784;48.490;9.688;2023-06-22T10:55:48;11.18;;;4.35;;
45043;SDS011;30784;48.490;9.688;2023-06-22T10:58:14;10.00;;;4.25;;
45043;SDS011;30784;48.490;9.688;2023-06-22T11:00:39;10.02;;;4.57;;
45043;SDS011;30784;48.490;9.688;2023-06-22T11:03:05;11.77;;;4.18;;
45043;SDS011;30784;48.490;9.688;2023-06-22T11:05:31;10.73;;;4.25;;
45043;SDS011;30784;48.490;9.688;2023-06-22T11:07:57;10.65;;;4.00;;
45043;SDS011;30784;48.490;9.688;2023-06-22T11:10:22;10.93;;;4.13;;
45043;SDS011;30784;48.490;9.688;2023-06-22T11:12:48;10.55;;;4.10;;
45043;SDS011;30784;48.490;9.688;2023-06-22T11:15:14;10.88;;;4.25;;
45043;SDS011;30784;48.490;9.688;2023-06-22T11:17:39;10.73;;;4.30;;
45043;SDS011;30784;48.490;9.688;2023-06-22T11:20:05;11.13;;;4.38;;
45043;SDS011;30784;48.490;9.688;2023-06-22T11:22:36;10.93;;;4.20;;
45043;SDS011;30784;48.490;9.688;2023-06-22T11:25:02;9.85;;;4.00;;
45043;SDS011;30784;48.490;9.688;2023-06-22T11:27:28;8.88;;;3.67;;
45043;SDS011;30784;48.490;9.688;2023-06-22T11:29:54;11.75;;;3.88;;
45043;SDS011;30784;48.490;9.688;2023-06-22T11:32:20;10.18;;;4.10;;
45043;SDS011;30784;48.490;9.688;2023-06-22T11:34:45;11.25;;;4.10;;
45043;SDS011;30784;48.490;9.688;2023-06-22T11:37:11;11.80;;;4.10;;
45043;SDS011;30784;48.490;9.688;2023-06-22T11:39:36;11.75;;;4.05;;
45043;SDS011;30784;48.490;9.688;2023-06-22T11:42:02;9.80;;;3.80;;
45043;SDS011;30784;48.490;9.688;2023-06-22T11:44:28;10.23;;;3.88;;
45043;SDS011;30784;48.490;9.688;2023-06-22T11:46:53;8.63;;;3.83;;
45043;SDS011;30784;48.490;9.688;2023-06-22T11:49:19;9.63;;;3.90;;
45043;SDS011;30784;48.490;9.688;2023-06-22T11:51:44;9.93;;;4.35;;
45043;SDS011;30784;48.490;9.688;2023-06-22T11:54:10;10.30;;;4.05;;
45043;SDS011;30784;48.490;9.688;2023-06-22T11:56:35;11.15;;;4.07;;
45043;SDS011;30784;48.490;9.688;2023-06-22T11:59:01;12.65;;;4.28;;
45043;SDS011;30784;48.490;9.688;2023-06-22T12:01:26;9.88;;;4.13;;
45043;SDS011;30784;48.490;9.688;2023-06-22T12:03:52;12.07;;;4.10;;
45043;SDS011;30784;48.490;9.688;2023-06-22T12:06:17;10.93;;;4.20;;
45043;SDS011;30784;48.490;9.688;2023-06-22T12:08:43;10.43;;;4.35;;
45043;SDS011;30784;48.490;9.688;2023-06-22T12:11:08;13.00;;;4.10;;
45043;SDS011;30784;48.490;9.688;2023-06-22T12:13:34;8.98;;;3.90;;
45043;SDS011;30784;48.490;9.688;2023-06-22T12:15:59;12.07;;;4.47;;
45043;SDS011;30784;48.490;9.688;2023-06-22T12:18:25;12.52;;;4.85;;
45043;SDS011;30784;48.490;9.688;2023-06-22T12:20:50;11.25;;;4.38;;
45043;SDS011;30784;48.490;9.688;2023-06-22T12:23:16;11.25;;;4.75;;
45043;SDS011;30784;48.490;9.688;2023-06-22T12:25:41;11.80;;;5.03;;
45043;SDS011;30784;48.490;9.688;2023-06-22T12:28:07;12.10;;;5.63;;
45043;SDS011;30784;48.490;9.688;2023-06-22T12:30:33;13.80;;;5.28;;
45043;SDS011;30784;48.490;9.688;2023-06-22T12:32:58;15.50;;;5.22;;
45043;SDS011;30784;48.490;9.688;2023-06-22T12:35:24;14.35;;;5.28;;
45043;SDS011;30784;48.490;9.688;2023-06-22T12:37:49;11.90;;;5.25;;
45043;SDS011;30784;48.490;9.688;2023-06-22T12:40:15;10.25;;;4.78;;
45043;SDS011;30784;48.490;9.688;2023-06-22T12:42:41;11.35;;;5.25;;
45043;SDS011;30784;48.490;9.688;2023-06-22T12:45:07;13.18;;;5.00;;
45043;SDS011;30784;48.490;9.688;2023-06-22T12:47:33;11.23;;;4.55;;
45043;SDS011;30784;48.490;9.688;2023-06-22T12:49:59;10.93;;;4.72;;
45043;SDS011;30784;48.490;9.688;2023-06-22T12:52:24;12.23;;;5.50;;
45043;SDS011;30784;48.490;9.688;2023-06-22T12:54:50;11.63;;;5.35;;
45043;SDS011;30784;48.490;9.688;2023-06-22T12:57:17;14.05;;;5.35;;
45043;SDS011;30784;48.490;9.688;2023-06-22T12:59:44;11.98;;;4.97;;
45043;SDS011;30784;48.490;9.688;2023-06-22T13:02:09;15.60;;;6.20;;
45043;SDS011;30784;48.490;9.688;2023-06-22T13:04:35;11.52;;;5.45;;
45043;SDS011;30784;48.490;9.688;2023-06-22T13:07:01;13.45;;;5.68;;
45043;SDS011;30784;48.490;9.688;2023-06-22T13:09:26;14.02;;;5.28;;
45043;SDS011;30784;48.490;9.688;2023-06-22T13:11:52;12.30;;;5.20;;
45043;SDS011;30784;48.490;9.688;2023-06-22T13:14:17;13.13;;;5.53;;
45043;SDS011;30784;48.490;9.688;2023-06-22T13:16:43;11.90;;;5.15;;
45043;SDS011;30784;48.490;9.688;2023-06-22T13:19:09;12.20;;;5.00;;
45043;SDS011;30784;48.490;9.688;2023-06-22T13:21:34;11.25;;;4.45;;
45043;SDS011;30784;48.490;9.688;2023-06-22T13:24:00;10.95;;;4.40;;
45043;SDS011;30784;48.490;9.688;2023-06-22T13:26:26;9.35;;;3.63;;
45043;SDS011;30784;48.490;9.688;2023-06-22T13:28:53;10.50;;;3.90;;
45043;SDS011;30784;48.490;9.688;2023-06-22T13:31:19;14.50;;;4.72;;
45043;SDS011;30784;48.490;9.688;2023-06-22T13:33:44;10.98;;;4.05;;
45043;SDS011;30784;48.490;9.688;2023-06-22T13:36:12;10.25;;;3.88;;
45043;SDS011;30784;48.490;9.688;2023-06-22T13:38:38;10.18;;;3.70;;
45043;SDS011;30784;48.490;9.688;2023-06-22T13:41:04;8.85;;;3.42;;
45043;SDS011;30784;48.490;9.688;2023-06-22T13:43:30;9.60;;;3.58;;
45043;SDS011;30784;48.490;9.688;2023-06-22T13:45:56;13.10;;;3.67;;
45043;SDS011;30784;48.490;9.688;2023-06-22T13:48:22;10.05;;;3.22;;
45043;SDS011;30784;48.490;9.688;2023-06-22T13:50:48;11.07;;;3.25;;
45043;SDS011;30784;48.490;9.688;2023-06-22T13:53:14;9.10;;;3.47;;
45043;SDS011;30784;48.490;9.688;2023-06-22T13:55:40;11.90;;;3.60;;
45043;SDS011;30784;48.490;9.688;2023-06-22T13:58:06;10.88;;;3.78;;
45043;SDS011;30784;48.490;9.688;2023-06-22T14:00:32;10.30;;;3.45;;
45043;SDS011;30784;48.490;9.688;2023-06-22T14:02:57;11.38;;;3.80;;
45043;SDS011;30784;48.490;9.688;2023-06-22T14:05:23;9.95;;;3.95;;
45043;SDS011;30784;48.490;9.688;2023-06-22T14:07:48;9.73;;;4.00;;
45043;SDS011;30784;48.490;9.688;2023-06-22T14:10:14;11.50;;;4.78;;
45043;SDS011;30784;48.490;9.688;2023-06-22T14:12:39;10.15;;;4.05;;
45043;SDS011;30784;48.490;9.688;2023-06-22T14:15:05;10.02;;;4.38;;
45043;SDS011;30784;48.490;9.688;2023-06-22T14:17:31;10.38;;;4.50;;
45043;SDS011;30784;48.490;9.688;2023-06-22T14:19:56;11.38;;;3.95;;
45043;SDS011;30784;48.490;9.688;2023-06-22T14:22:22;9.25;;;4.15;;
45043;SDS011;30784;48.490;9.688;2023-06-22T14:24:48;11.10;;;4.40;;
45043;SDS011;30784;48.490;9.688;2023-06-22T14:27:14;10.45;;;4.32;;
45043;SDS011;30784;48.490;9.688;2023-06-22T14:29:40;11.35;;;4.30;;
45043;SDS011;30784;48.490;9.688;2023-06-22T14:32:06;11.38;;;4.22;;
45043;SDS011;30784;48.490;9.688;2023-06-22T14:34:32;10.52;;;4.20;;
45043;SDS011;30784;48.490;9.688;2023-06-22T14:37:00;11.57;;;4.18;;
45043;SDS011;30784;48.490;9.688;2023-06-22T14:39:27;12.63;;;3.90;;